Time;durP1;ratioP1;P1;durP2;ratioP2;P2;SDS_P1;SDS_P2;PMS_P1;PMS_P2;Temp;Humidity;BMP_temperature;BMP_pressure;BME280_temperature;BME280_humidity;BME280_pressure;Samples;Min_cycle;Max_cycle;Signal;HPM_P1;HPM_P2
2022/01/16 00:00:08;;;;;;;0.20;0.20;;;;;;;18.60;39.88;101932.38;5145263;27;20496;-33
2022/01/16 00:05:13;;;;;;;0.20;0.20;;;;;;;18.60;39.80;101923.25;5174144;27;20213;-32
2022/01/16 00:07:39;;;;;;;0.30;0.30;;;;;;;18.57;39.95;101938.41;5162914;27;20421;-32
2022/01/16 00:10:06;;;;;;;0.28;0.28;;;;;;;18.58;39.86;101942.84;5154149;27;20189;-32
2022/01/16 00:12:32;;;;;;;0.20;0.20;;;;;;;18.59;39.99;101944.50;5160126;27;20042;-34
2022/01/16 00:14:57;;;;;;;0.28;0.28;;;;;;;18.60;40.03;101943.41;5161073;27;20396;-32
2022/01/16 00:17:24;;;;;;;0.20;0.20;;;;;;;18.60;39.89;101928.78;5161812;27;20039;-32
2022/01/16 00:19:50;;;;;;;0.20;0.20;;;;;;;18.59;40.02;101930.72;5143334;27;20041;-32
2022/01/16 00:22:16;;;;;;;0.22;0.22;;;;;;;18.59;40.15;101936.22;5140234;27;20354;-33
2022/01/16 00:24:42;;;;;;;0.30;0.30;;;;;;;18.60;39.91;101940.66;5144822;27;20606;-33
2022/01/16 00:27:08;;;;;;;0.20;0.20;;;;;;;18.59;39.93;101933.47;5138867;27;20090;-34
2022/01/16 00:29:34;;;;;;;0.20;0.20;;;;;;;18.60;39.88;101929.59;5143251;27;20095;-33
2022/01/16 00:31:59;;;;;;;0.20;0.20;;;;;;;18.59;39.96;101930.72;5127642;27;20043;-32
2022/01/16 00:34:25;;;;;;;0.30;0.30;;;;;;;18.60;39.99;101917.75;5143557;27;20401;-32
2022/01/16 00:36:51;;;;;;;0.30;0.30;;;;;;;18.60;39.91;101937.06;5142556;27;20062;-32
2022/01/16 00:39:16;;;;;;;0.30;0.30;;;;;;;18.59;39.96;101947.25;5138875;27;20066;-33
2022/01/16 00:41:43;;;;;;;0.20;0.20;;;;;;;18.60;39.84;101948.09;5136515;27;20653;-34
2022/01/16 00:44:09;;;;;;;0.20;0.20;;;;;;;18.59;40.01;101952.78;5120820;27;20413;-33
2022/01/16 00:46:35;;;;;;;0.20;0.20;;;;;;;18.60;39.82;101948.09;5144191;27;20066;-33
2022/01/16 00:49:02;;;;;;;0.20;0.20;;;;;;;18.59;39.98;101963.81;5142276;27;20074;-32
2022/01/16 00:51:28;;;;;;;0.20;0.20;;;;;;;18.60;40.00;101964.66;5124132;27;20526;-32
2022/01/16 00:53:54;;;;;;;0.30;0.30;;;;;;;18.60;39.85;101965.47;5115886;27;20086;-32
2022/01/16 00:56:21;;;;;;;0.20;0.20;;;;;;;18.59;39.96;101958.28;5151881;27;20081;-33
2022/01/16 00:58:47;;;;;;;0.30;0.30;;;;;;;18.59;39.98;101949.19;5124875;27;20039;-32
2022/01/16 01:01:14;;;;;;;0.20;0.20;;;;;;;18.58;39.95;101936.50;5135518;27;20094;-32
2022/01/16 01:03:40;;;;;;;0.30;0.30;;;;;;;18.60;39.82;101918.56;5123428;27;20043;-32
2022/01/16 01:06:06;;;;;;;0.20;0.20;;;;;;;18.59;39.86;101925.19;5123034;27;20062;-32
2022/01/16 01:08:32;;;;;;;0.20;0.20;;;;;;;18.60;39.82;101951.69;5140734;27;20082;-32
2022/01/16 01:10:58;;;;;;;0.20;0.20;;;;;;;18.61;40.02;101949.75;5128786;27;20036;-33
2022/01/16 01:13:33;;;;;;;0.20;0.20;;;;;;;18.60;39.72;101962.72;5142283;27;20051;-33
2022/01/16 01:16:04;;;;;;;0.20;0.20;;;;;;;18.60;39.85;101934.28;5109092;27;20043;-33
2022/01/16 01:18:31;;;;;;;0.20;0.20;;;;;;;18.58;39.95;101950.28;5126919;27;20075;-33
2022/01/16 01:20:59;;;;;;;0.20;0.20;;;;;;;18.59;39.93;101936.22;5126257;27;20040;-37
2022/01/16 01:23:24;;;;;;;0.20;0.20;;;;;;;18.60;39.88;101939.81;5124726;27;20043;-32
2022/01/16 01:25:50;;;;;;;0.20;0.20;;;;;;;18.60;39.93;101961.88;5123006;27;20389;-33
2022/01/16 01:28:16;;;;;;;0.20;0.20;;;;;;;18.60;39.89;101959.13;5122502;27;20039;-32
2022/01/16 01:30:44;;;;;;;0.30;0.30;;;;;;;18.59;39.92;101952.78;5130066;27;20143;-32
2022/01/16 01:33:13;;;;;;;;;;;;;;;18.58;39.95;101958.56;5105774;27;20047;-32
2022/01/16 01:35:39;;;;;;;0.20;0.20;;;;;;;18.60;39.85;101913.06;5109763;27;19933;-34
2022/01/16 01:38:06;;;;;;;0.25;0.25;;;;;;;18.59;39.93;101889.31;5134644;27;20055;-35
2022/01/16 01:40:33;;;;;;;0.30;0.30;;;;;;;18.59;39.75;101888.50;5121070;27;20042;-33
2022/01/16 01:51:31;;;;;;;0.30;0.30;;;;;;;18.60;39.85;101934.28;5115093;27;20048;-35
2022/01/16 01:53:57;;;;;;;0.30;0.30;;;;;;;18.60;40.00;101945.34;5122206;27;20047;-33
2022/01/16 01:56:25;;;;;;;0.30;0.30;;;;;;;18.60;39.83;101962.72;5128835;27;20047;-33
2022/01/16 01:58:53;;;;;;;0.30;0.30;;;;;;;18.59;39.88;101961.06;5115293;27;20035;-33
2022/01/16 02:01:20;;;;;;;0.20;0.20;;;;;;;18.58;39.81;101953.88;5109822;28;20267;-32
2022/01/16 02:03:48;;;;;;;0.30;0.30;;;;;;;18.60;39.76;101965.47;5107561;27;20074;-35
2022/01/16 02:06:17;;;;;;;0.20;0.20;;;;;;;18.59;39.83;101963.81;5128108;27;20338;-32
2022/01/16 02:08:44;;;;;;;0.30;0.30;;;;;;;18.59;39.99;101961.06;5127247;27;20047;-34
2022/01/16 02:11:12;;;;;;;0.20;0.20;;;;;;;18.59;39.75;101950.03;5122299;27;20044;-37
2022/01/16 02:13:49;;;;;;;0.30;0.30;;;;;;;18.59;39.96;101947.25;5124328;27;20050;-33
2022/01/16 02:33:21;;;;;;;0.30;0.30;;;;;;;18.59;39.89;101966.56;5114024;27;20397;-36
2022/01/16 02:35:37;;;;;;;0.30;0.30;;;;;;;18.60;39.88;101962.72;5116817;27;20129;-35
2022/01/16 02:38:04;;;;;;;0.20;0.20;;;;;;;18.60;39.82;101957.19;5109827;28;20051;-32
2022/01/16 02:40:30;;;;;;;0.20;0.20;;;;;;;18.60;39.84;101959.97;5128970;27;20047;-36
2022/01/16 02:42:56;;;;;;;0.20;0.20;;;;;;;18.60;40.13;101954.44;5125094;27;20042;-33
2022/01/16 02:45:31;;;;;;;0.25;0.25;;;;;;;18.61;39.82;101945.09;5132203;27;20088;-34
2022/01/16 02:48:01;;;;;;;0.20;0.20;;;;;;;18.60;39.90;101937.88;5093002;27;20048;-32
2022/01/16 02:50:28;;;;;;;0.30;0.30;;;;;;;18.59;39.93;101925.19;5109722;27;20485;-32
2022/01/16 02:52:53;;;;;;;0.25;0.25;;;;;;;18.58;39.66;101923.53;5108162;28;20058;-32
2022/01/16 02:55:21;;;;;;;0.30;0.30;;;;;;;18.60;39.83;101918.56;5127532;27;20066;-33
2022/01/16 02:57:48;;;;;;;0.20;0.20;;;;;;;18.61;39.98;101920.28;5129600;27;20480;-33
2022/01/16 03:00:14;;;;;;;0.22;0.22;;;;;;;18.59;39.91;101911.41;5112703;27;20039;-33
2022/01/16 03:02:39;;;;;;;0.30;0.30;;;;;;;18.60;39.96;101913.06;5104586;27;20042;-33
2022/01/16 03:05:06;;;;;;;0.30;0.30;;;;;;;18.60;39.96;101913.06;5126949;27;20047;-32
2022/01/16 03:07:32;;;;;;;0.20;0.20;;;;;;;18.61;39.92;101905.63;5130509;27;20099;-32
2022/01/16 03:12:54;;;;;;;0.20;0.20;;;;;;;18.61;39.77;101902.84;5099611;27;20043;-34
2022/01/16 03:15:20;;;;;;;0.20;0.20;;;;;;;18.60;39.82;101907.53;5108474;28;20064;-37
2022/01/16 03:23:27;;;;;;;0.30;0.30;;;;;;;18.64;40.03;101899.59;5127820;27;20043;-32
2022/01/16 03:25:53;;;;;;;0.20;0.20;;;;;;;18.62;39.89;101899.88;5147352;27;20104;-35
2022/01/16 03:28:19;;;;;;;0.30;0.30;;;;;;;18.61;39.92;101887.16;5149518;27;20039;-32
2022/01/16 03:30:45;;;;;;;0.20;0.20;;;;;;;18.61;39.81;101891.81;5132279;27;20050;-32
2022/01/16 03:33:11;;;;;;;0.30;0.30;;;;;;;18.62;39.88;101893.50;5151164;27;20051;-32
2022/01/16 03:35:37;;;;;;;0.20;0.20;;;;;;;18.63;39.81;101882.22;5152906;27;20043;-33
2022/01/16 03:38:03;;;;;;;0.28;0.28;;;;;;;18.62;39.83;101882.47;5130411;27;20050;-32
2022/01/16 03:40:29;;;;;;;0.30;0.30;;;;;;;18.60;39.87;101890.16;5133146;27;20081;-33
2022/01/16 03:43:04;;;;;;;0.30;0.30;;;;;;;18.62;39.86;101885.25;5146818;27;20070;-33
2022/01/16 03:45:29;;;;;;;0.30;0.30;;;;;;;18.61;39.82;101878.88;5147926;27;20046;-32
2022/01/16 03:47:55;;;;;;;0.28;0.28;;;;;;;18.62;39.95;101871.44;5154442;27;20043;-32
2022/01/16 03:50:21;;;;;;;0.30;0.30;;;;;;;18.62;39.79;101868.69;5149309;27;20198;-32
2022/01/16 03:52:46;;;;;;;0.30;0.30;;;;;;;18.62;39.79;101876.97;5125253;27;20065;-33
2022/01/16 03:55:12;;;;;;;0.30;0.30;;;;;;;18.62;39.75;101874.19;5148819;27;20042;-33
2022/01/16 03:57:38;;;;;;;0.30;0.30;;;;;;;18.62;39.81;101888.81;5148023;27;20100;-32
2022/01/16 04:00:05;;;;;;;0.30;0.30;;;;;;;18.61;39.97;101900.09;5149683;27;20045;-32
2022/01/16 04:02:31;;;;;;;0.30;0.30;;;;;;;18.62;39.71;101883.31;5115254;27;20054;-33
2022/01/16 04:04:57;;;;;;;0.30;0.30;;;;;;;18.62;39.74;101888.81;5147762;27;20534;-32
2022/01/16 04:07:28;;;;;;;0.20;0.20;;;;;;;18.62;39.95;101902.63;5149818;27;20102;-32
2022/01/16 04:09:53;;;;;;;0.28;0.28;;;;;;;18.62;39.94;101899.88;5149735;27;20051;-32
2022/01/16 04:12:22;;;;;;;0.30;0.30;;;;;;;18.63;39.66;101900.69;5127771;27;20122;-32
2022/01/16 04:17:27;;;;;;;0.20;0.20;;;;;;;18.63;39.77;101898.75;5167004;27;20636;-32
2022/01/16 04:19:53;;;;;;;0.30;0.30;;;;;;;18.62;39.94;101894.34;5140758;27;20040;-32
2022/01/16 04:22:19;;;;;;;0.20;0.20;;;;;;;18.62;39.87;101891.59;5135887;27;20047;-32
2022/01/16 04:24:45;;;;;;;0.30;0.30;;;;;;;18.62;39.78;101888.81;5123726;27;20199;-32
2022/01/16 04:27:12;;;;;;;0.30;0.30;;;;;;;18.62;39.83;101890.75;5142686;27;20046;-32
2022/01/16 04:29:39;;;;;;;0.30;0.30;;;;;;;18.63;39.90;101900.69;5140587;27;20061;-33
2022/01/16 04:32:05;;;;;;;0.30;0.30;;;;;;;18.62;39.96;101897.09;5138054;27;20035;-33
2022/01/16 04:34:31;;;;;;;0.20;0.20;;;;;;;18.62;39.88;101890.75;5141730;27;20039;-32
2022/01/16 04:36:56;;;;;;;0.30;0.30;;;;;;;18.63;39.83;101892.41;5141833;27;20051;-33
2022/01/16 04:39:30;;;;;;;0.30;0.30;;;;;;;18.60;39.87;101896.50;5134850;27;20046;-32
2022/01/16 04:44:42;;;;;;;0.30;0.30;;;;;;;18.63;39.88;101900.69;5122454;27;20035;-33
2022/01/16 04:47:08;;;;;;;0.30;0.30;;;;;;;18.63;39.96;101903.44;5118276;27;20046;-33
2022/01/16 04:49:33;;;;;;;0.30;0.30;;;;;;;18.62;39.81;101910.06;5120486;27;20047;-32
2022/01/16 04:51:59;;;;;;;0.30;0.30;;;;;;;18.61;39.84;101903.72;5143687;27;20132;-34
2022/01/16 04:54:25;;;;;;;0.20;0.20;;;;;;;18.63;39.87;101907.03;5131193;27;20397;-33
2022/01/16 04:56:51;;;;;;;0.30;0.30;;;;;;;18.63;39.89;101906.22;5140105;27;20407;-33
2022/01/16 04:59:17;;;;;;;0.30;0.30;;;;;;;18.61;39.80;101911.13;5135142;27;20126;-33
2022/01/16 05:01:43;;;;;;;0.30;0.30;;;;;;;18.64;39.91;101910.63;5134005;27;20049;-34
2022/01/16 05:04:09;;;;;;;0.30;0.30;;;;;;;18.63;39.79;101906.22;5135654;27;20055;-32
2022/01/16 05:06:35;;;;;;;0.20;0.20;;;;;;;18.61;39.83;101894.56;5129125;27;20647;-33
2022/01/16 05:09:01;;;;;;;0.30;0.30;;;;;;;18.61;39.97;101884.41;5118304;27;20527;-32
2022/01/16 05:11:27;;;;;;;0.30;0.30;;;;;;;18.62;39.93;101890.75;5138857;27;20061;-32
2022/01/16 05:16:35;;;;;;;0.30;0.30;;;;;;;18.62;40.07;101879.72;5172859;27;20560;-37
2022/01/16 05:19:06;;;;;;;0.20;0.20;;;;;;;18.61;39.82;101884.41;5166097;27;20492;-33
2022/01/16 05:21:32;;;;;;;0.20;0.20;;;;;;;18.61;40.05;101881.66;5167692;27;20056;-33
2022/01/16 05:23:57;;;;;;;0.20;0.20;;;;;;;18.61;39.77;101872.50;5164149;27;20461;-32
2022/01/16 05:26:27;;;;;;;0.30;0.30;;;;;;;18.62;39.96;101869.50;5148676;27;20123;-34
2022/01/16 05:28:53;;;;;;;0.20;0.20;;;;;;;18.63;39.86;101868.41;5148315;27;20137;-34
2022/01/16 05:31:19;;;;;;;0.30;0.30;;;;;;;18.63;39.90;101871.19;5166784;27;20050;-33
2022/01/16 05:33:45;;;;;;;0.20;0.20;;;;;;;18.63;39.79;101884.97;5166160;27;20046;-34
2022/01/16 05:36:11;;;;;;;0.20;0.20;;;;;;;18.62;40.01;101886.06;5149233;27;20072;-34
2022/01/16 05:38:37;;;;;;;0.20;0.20;;;;;;;18.63;39.89;101890.50;5165939;27;20095;-32
2022/01/16 05:41:02;;;;;;;0.25;0.25;;;;;;;18.62;40.07;101891.59;5147938;27;20046;-32
2022/01/16 05:43:28;;;;;;;0.20;0.20;;;;;;;18.62;39.91;101880.53;5166787;27;20385;-36
2022/01/16 05:45:54;;;;;;;0.30;0.30;;;;;;;18.62;39.92;101888.00;5147422;27;20053;-33
2022/01/16 05:48:20;;;;;;;0.20;0.20;;;;;;;18.62;40.08;101891.59;5165909;27;20054;-32
2022/01/16 05:50:45;;;;;;;0.20;0.20;;;;;;;18.62;39.84;101891.59;5165850;27;20034;-33
2022/01/16 05:53:11;;;;;;;0.20;0.20;;;;;;;18.63;39.87;101900.69;5163355;27;20400;-33
2022/01/16 05:55:37;;;;;;;0.20;0.20;;;;;;;18.62;39.73;101901.78;5166007;27;20043;-36
2022/01/16 05:58:04;;;;;;;0.30;0.30;;;;;;;18.63;39.82;101897.94;5147718;27;20174;-32
2022/01/16 06:00:30;;;;;;;0.30;0.30;;;;;;;18.63;39.95;101900.69;5166286;27;20469;-32
2022/01/16 06:02:56;;;;;;;0.30;0.30;;;;;;;18.63;40.01;101895.19;5167222;27;20046;-32
2022/01/16 06:05:22;;;;;;;0.30;0.30;;;;;;;18.63;40.06;101889.66;5147884;27;20094;-33
2022/01/16 06:07:56;;;;;;;0.30;0.30;;;;;;;18.64;39.97;101885.81;5166880;27;20079;-33
2022/01/16 06:10:22;;;;;;;0.20;0.20;;;;;;;18.63;39.88;101884.97;5165045;27;20086;-34
2022/01/16 06:12:48;;;;;;;0.28;0.28;;;;;;;18.63;39.90;101884.97;5146512;27;20042;-34
2022/01/16 06:15:13;;;;;;;0.20;0.20;;;;;;;18.62;39.94;101886.06;5164530;27;20039;-33
2022/01/16 06:17:39;;;;;;;0.20;0.20;;;;;;;18.64;40.07;101880.28;5164384;27;20373;-33
2022/01/16 06:20:05;;;;;;;0.20;0.20;;;;;;;18.64;39.79;101881.13;5132460;27;20071;-32
2022/01/16 06:22:31;;;;;;;0.20;0.20;;;;;;;18.64;39.87;101881.13;5131105;27;20060;-33
2022/01/16 06:25:01;;;;;;;0.30;0.30;;;;;;;18.65;39.77;101890.22;5137145;27;20284;-35
2022/01/16 06:27:26;;;;;;;0.30;0.30;;;;;;;18.64;39.91;101888.56;5123566;27;20088;-33
2022/01/16 06:29:52;;;;;;;0.30;0.30;;;;;;;18.64;39.92;101902.34;5143326;27;20477;-33
2022/01/16 06:32:18;;;;;;;0.20;0.20;;;;;;;18.65;39.86;101901.25;5140712;27;20043;-33
2022/01/16 06:34:43;;;;;;;0.30;0.30;;;;;;;18.64;39.99;101900.44;5136320;27;20047;-32
2022/01/16 06:37:09;;;;;;;0.30;0.30;;;;;;;18.63;40.06;101909.81;5120106;27;20050;-32
2022/01/16 06:39:35;;;;;;;0.25;0.25;;;;;;;18.65;39.88;101915.06;5139935;27;20043;-33
2022/01/16 06:42:00;;;;;;;0.30;0.30;;;;;;;18.64;39.94;101925.25;5142009;27;20039;-32
2022/01/16 06:44:42;;;;;;;0.20;0.20;;;;;;;18.64;39.91;101921.66;5140048;27;20092;-34
2022/01/16 06:47:07;;;;;;;0.30;0.30;;;;;;;18.63;39.96;101920.84;5140934;27;20385;-32
2022/01/16 06:49:33;;;;;;;0.30;0.30;;;;;;;18.65;39.83;101917.81;5140743;27;20035;-32
2022/01/16 06:51:59;;;;;;;0.20;0.20;;;;;;;18.63;39.75;101912.56;5143843;27;20054;-33
2022/01/16 06:54:25;;;;;;;0.20;0.20;;;;;;;18.65;39.96;101909.53;5135835;27;20050;-32
2022/01/16 06:56:50;;;;;;;0.30;0.30;;;;;;;18.64;39.95;101913.38;5136636;27;20104;-33
2022/01/16 06:59:16;;;;;;;0.20;0.20;;;;;;;18.64;39.95;101910.63;5143063;27;20039;-33
2022/01/16 07:01:47;;;;;;;0.30;0.30;;;;;;;18.62;39.72;101905.38;5139572;27;20042;-34
2022/01/16 07:04:13;;;;;;;0.20;0.20;;;;;;;18.64;39.90;101907.88;5123054;27;20039;-33
2022/01/16 07:06:39;;;;;;;0.30;0.30;;;;;;;18.64;39.89;101916.97;5145790;27;20054;-32
2022/01/16 07:09:04;;;;;;;0.20;0.20;;;;;;;18.63;39.83;101920.00;5139528;27;20842;-32
2022/01/16 07:11:30;;;;;;;0.22;0.22;;;;;;;18.64;39.96;101925.25;5141327;27;20050;-32
2022/01/16 07:13:56;;;;;;;0.30;0.30;;;;;;;18.64;39.89;101927.19;5119635;27;20072;-32
2022/01/16 07:16:22;;;;;;;0.30;0.30;;;;;;;18.65;39.87;101926.94;5121658;27;20055;-33
2022/01/16 07:18:48;;;;;;;0.20;0.20;;;;;;;18.64;40.00;101930.78;5140241;27;20378;-35
2022/01/16 07:21:14;;;;;;;0.30;0.30;;;;;;;18.64;39.91;101941.81;5135105;27;20466;-32
2022/01/16 07:23:41;;;;;;;0.30;0.30;;;;;;;18.64;39.95;101938.22;5138555;27;20039;-33
2022/01/16 07:26:06;;;;;;;0.30;0.30;;;;;;;18.64;39.90;101949.25;5142936;27;20039;-33
2022/01/16 07:28:32;;;;;;;0.30;0.30;;;;;;;18.64;39.94;101950.09;5119992;27;20058;-33
2022/01/16 07:30:58;;;;;;;0.25;0.25;;;;;;;18.63;39.91;101948.44;5133615;27;20371;-33
2022/01/16 07:33:23;;;;;;;0.20;0.20;;;;;;;18.64;40.05;101944.56;5139677;27;20062;-33
2022/01/16 07:35:49;;;;;;;0.20;0.20;;;;;;;18.65;39.79;101942.66;5135623;27;20043;-33
2022/01/16 07:38:15;;;;;;;0.20;0.20;;;;;;;18.65;39.90;101965.59;5138338;27;20387;-34
2022/01/16 07:40:40;;;;;;;0.20;0.20;;;;;;;18.66;39.85;101967.25;5139523;27;20047;-34
2022/01/16 07:43:07;;;;;;;0.20;0.20;;;;;;;18.66;39.98;101966.41;5143831;27;21251;-33
2022/01/16 07:45:33;;;;;;;0.20;0.20;;;;;;;18.66;39.63;101961.72;5133577;27;20047;-32
2022/01/16 07:47:58;;;;;;;0.20;0.20;;;;;;;18.65;39.83;101957.31;5139637;27;20042;-33
2022/01/16 07:50:24;;;;;;;0.20;0.20;;;;;;;18.66;39.89;101966.41;5137053;27;20047;-32
2022/01/16 07:52:50;;;;;;;0.30;0.30;;;;;;;18.66;39.98;101971.94;5138957;27;20034;-32
2022/01/16 07:55:17;;;;;;;0.25;0.25;;;;;;;18.65;39.95;101973.84;5141121;27;20039;-33
2022/01/16 07:57:42;;;;;;;0.20;0.20;;;;;;;18.65;39.93;101973.84;5138382;27;20046;-33
2022/01/16 08:00:29;;;;;;;0.20;0.20;;;;;;;18.65;39.71;101984.91;5121987;27;20046;-33
2022/01/16 08:02:57;;;;;;;0.20;0.20;;;;;;;18.65;39.87;101984.03;5122203;27;20047;-33
2022/01/16 08:05:24;;;;;;;0.20;0.20;;;;;;;18.64;39.93;101985.97;5140530;27;20043;-32
2022/01/16 08:07:49;;;;;;;0.28;0.28;;;;;;;18.65;39.90;101993.16;5138470;27;20055;-33
2022/01/16 08:10:15;;;;;;;0.22;0.22;;;;;;;18.65;39.87;101981.28;5141108;27;20049;-34
2022/01/16 08:12:41;;;;;;;0.30;0.30;;;;;;;18.64;39.82;101977.69;5141699;27;20079;-35
2022/01/16 08:15:07;;;;;;;0.30;0.30;;;;;;;18.65;39.91;101979.38;5143160;27;20065;-32
2022/01/16 08:17:36;;;;;;;0.20;0.20;;;;;;;18.65;39.95;101979.38;5143569;27;20535;-35
2022/01/16 08:20:03;;;;;;;0.40;0.40;;;;;;;18.65;39.98;101986.78;5123933;27;20051;-34
2022/01/16 08:22:29;;;;;;;0.28;0.28;;;;;;;18.65;39.86;101976.63;5115591;27;20080;-34
2022/01/16 08:24:55;;;;;;;0.20;0.20;;;;;;;18.65;39.90;101976.63;5134793;27;20047;-33
2022/01/16 08:27:20;;;;;;;0.30;0.30;;;;;;;18.66;39.88;101977.44;5137645;27;20058;-32
2022/01/16 08:29:46;;;;;;;0.20;0.20;;;;;;;18.66;39.88;101971.94;5142578;27;20039;-32
2022/01/16 08:32:11;;;;;;;0.30;0.30;;;;;;;18.65;39.90;101975.75;5137161;27;20054;-32
2022/01/16 08:34:37;;;;;;;0.30;0.30;;;;;;;18.65;39.96;101979.38;5137023;27;20043;-39
2022/01/16 08:37:03;;;;;;;0.22;0.22;;;;;;;18.66;40.01;101980.22;5143581;27;20039;-33
2022/01/16 08:39:29;;;;;;;0.28;0.28;;;;;;;18.66;39.85;101980.22;5117896;27;20054;-32
2022/01/16 08:41:55;;;;;;;0.30;0.30;;;;;;;18.66;39.84;101989.31;5120389;27;20058;-35
2022/01/16 08:44:21;;;;;;;0.30;0.30;;;;;;;18.65;39.85;101990.41;5137074;27;20074;-32
2022/01/16 08:46:47;;;;;;;0.30;0.30;;;;;;;18.65;40.06;101998.69;5136463;27;20043;-32
2022/01/16 08:49:13;;;;;;;0.30;0.30;;;;;;;18.65;39.99;102006.09;5119731;27;20043;-32
2022/01/16 08:51:39;;;;;;;0.20;0.20;;;;;;;18.65;39.80;101995.94;5143183;27;20035;-35
2022/01/16 08:54:05;;;;;;;0.20;0.20;;;;;;;18.65;39.71;102012.50;5100095;27;20265;-32
2022/01/16 08:56:30;;;;;;;0.20;0.20;;;;;;;18.66;39.94;102011.41;5110176;27;20308;-32
2022/01/16 08:58:56;;;;;;;0.20;0.20;;;;;;;18.66;39.84;102016.06;5116562;27;20329;-33
2022/01/16 09:01:22;;;;;;;0.30;0.30;;;;;;;18.66;40.00;102022.44;5132835;27;20071;-32
2022/01/16 09:03:53;;;;;;;0.20;0.20;;;;;;;18.66;39.90;102016.06;5121665;27;20313;-33
2022/01/16 09:06:19;;;;;;;0.25;0.25;;;;;;;18.67;39.98;102021.34;5136011;27;20054;-34
2022/01/16 09:08:45;;;;;;;0.20;0.20;;;;;;;18.66;40.14;102016.06;5139258;27;20347;-34
2022/01/16 09:11:11;;;;;;;0.20;0.20;;;;;;;18.66;39.79;102007.81;5124099;27;20049;-32
2022/01/16 09:13:38;;;;;;;0.20;0.20;;;;;;;18.66;39.85;102016.91;5135125;27;20039;-33
2022/01/16 09:16:04;;;;;;;0.30;0.30;;;;;;;18.65;39.87;102019.91;5138221;27;20043;-33
2022/01/16 09:18:30;;;;;;;0.30;0.30;;;;;;;18.66;39.96;102018.84;5121496;27;20039;-32
2022/01/16 09:20:56;;;;;;;0.30;0.30;;;;;;;18.65;39.88;102029.03;5134333;27;20099;-33
2022/01/16 09:23:22;;;;;;;0.20;0.20;;;;;;;18.67;40.02;102031.53;5132369;27;20054;-33
2022/01/16 09:25:48;;;;;;;0.30;0.30;;;;;;;18.65;39.93;102030.94;5135140;27;20439;-32
2022/01/16 09:28:14;;;;;;;0.30;0.30;;;;;;;18.66;40.03;102033.47;5118861;27;20054;-33
2022/01/16 09:30:40;;;;;;;0.30;0.30;;;;;;;18.66;40.00;102036.22;5142468;27;20051;-32
2022/01/16 09:33:05;;;;;;;0.30;0.30;;;;;;;18.67;39.93;102045.34;5134113;27;20757;-33
2022/01/16 09:35:33;;;;;;;0.20;0.20;;;;;;;18.66;39.80;102046.44;5118220;27;20326;-33
2022/01/16 09:38:00;;;;;;;0.20;0.20;;;;;;;18.67;40.01;102042.56;5135221;27;20046;-34
2022/01/16 09:40:26;;;;;;;0.30;0.30;;;;;;;18.66;40.00;102044.50;5117616;27;20043;-32
2022/01/16 09:42:52;;;;;;;0.20;0.20;;;;;;;18.66;39.85;102044.50;5116442;27;20135;-33
2022/01/16 09:45:19;;;;;;;0.30;0.30;;;;;;;18.66;40.00;102038.97;5112160;27;20043;-32
2022/01/16 09:47:45;;;;;;;0.30;0.30;;;;;;;18.67;39.87;102046.16;5137440;27;20449;-32
2022/01/16 09:50:14;;;;;;;0.30;0.30;;;;;;;18.67;39.97;102054.44;5134770;27;20099;-32
2022/01/16 09:52:40;;;;;;;;;;;;;;;18.68;39.93;102052.53;5135394;27;20068;-34
2022/01/16 09:55:06;;;;;;;0.30;0.30;;;;;;;18.67;40.00;102051.69;5135504;27;19923;-33
2022/01/16 09:57:33;;;;;;;0.30;0.30;;;;;;;18.67;40.09;102057.22;5139573;27;20050;-34
2022/01/16 09:59:59;;;;;;;0.30;0.30;;;;;;;18.66;39.90;102055.53;5118547;27;20042;-33
2022/01/16 10:02:24;;;;;;;0.30;0.30;;;;;;;18.66;39.92;102055.53;5119617;27;20043;-33
2022/01/16 10:04:50;;;;;;;0.30;0.30;;;;;;;18.67;39.93;102065.47;5140499;27;20049;-33
2022/01/16 10:07:18;;;;;;;0.20;0.20;;;;;;;18.68;39.98;102066.31;5121100;27;20102;-32
2022/01/16 10:10:03;;;;;;;0.30;0.30;;;;;;;18.67;40.05;102059.97;5143932;27;20063;-35
2022/01/16 10:12:29;;;;;;;0.30;0.30;;;;;;;18.65;40.03;102061.28;5122971;27;20088;-33
2022/01/16 10:14:56;;;;;;;0.28;0.28;;;;;;;18.67;40.14;102068.25;5119606;27;20181;-33
2022/01/16 10:17:25;;;;;;;0.20;0.20;;;;;;;18.68;39.79;102074.59;5143978;27;20473;-34
2022/01/16 10:20:03;;;;;;;0.30;0.30;;;;;;;18.68;39.86;102066.31;5139938;27;20039;-32
2022/01/16 10:22:38;;;;;;;0.20;0.20;;;;;;;18.67;40.02;102071.00;5121272;27;20134;-33
2022/01/16 10:25:05;;;;;;;0.20;0.20;;;;;;;18.68;40.03;102075.44;5121238;27;20050;-32
2022/01/16 10:27:34;;;;;;;0.20;0.20;;;;;;;18.68;39.93;102078.19;5139754;27;20122;-33
2022/01/16 10:30:02;;;;;;;0.20;0.20;;;;;;;18.67;39.87;102078.44;5145696;27;20057;-33
2022/01/16 10:32:31;;;;;;;0.20;0.20;;;;;;;18.69;39.85;102079.03;5122928;27;20155;-33
2022/01/16 10:35:22;;;;;;;0.20;0.20;;;;;;;18.69;40.02;102079.03;5118520;27;20045;-33
2022/01/16 10:37:52;;;;;;;0.30;0.30;;;;;;;18.67;39.97;102076.53;5128641;27;20054;-32
2022/01/16 10:40:36;;;;;;;0.20;0.20;;;;;;;18.68;40.08;102074.59;5116916;27;20045;-32
2022/01/16 10:43:06;;;;;;;0.20;0.20;;;;;;;18.67;39.95;102076.53;5102538;27;20042;-32
2022/01/16 10:45:33;;;;;;;0.30;0.30;;;;;;;18.67;39.87;102073.75;5140168;27;20047;-32
2022/01/16 10:48:00;;;;;;;0.30;0.30;;;;;;;18.67;39.94;102079.28;5119451;27;20043;-32
2022/01/16 10:50:32;;;;;;;0.30;0.30;;;;;;;18.68;39.96;102088.38;5121680;27;20047;-33
2022/01/16 10:55:45;;;;;;;0.30;0.30;;;;;;;18.68;39.96;102080.94;5162226;27;20150;-33
2022/01/16 10:58:20;;;;;;;0.30;0.30;;;;;;;18.68;39.95;102078.19;5147423;27;20049;-32
2022/01/16 11:00:54;;;;;;;0.20;0.20;;;;;;;18.68;39.94;102082.88;5147898;27;20050;-32
2022/01/16 11:03:22;;;;;;;0.20;0.20;;;;;;;18.68;40.08;102083.72;5144645;27;20477;-33
2022/01/16 11:05:50;;;;;;;0.30;0.30;;;;;;;18.69;40.00;102084.53;5147514;27;20038;-32
2022/01/16 11:08:20;;;;;;;0.20;0.20;;;;;;;18.69;40.05;102092.81;5141659;27;20043;-33
2022/01/16 11:10:48;;;;;;;0.20;0.20;;;;;;;18.69;39.94;102103.84;5125185;27;20233;-33
2022/01/16 11:13:16;;;;;;;0.20;0.20;;;;;;;18.69;39.93;102106.63;5144177;27;20130;-32
2022/01/16 11:15:45;;;;;;;0.30;0.30;;;;;;;18.68;40.03;102104.94;5130970;27;20059;-33
2022/01/16 11:18:12;;;;;;;0.35;0.35;;;;;;;18.68;40.12;102113.22;5123710;27;20042;-33
2022/01/16 11:20:40;;;;;;;0.30;0.30;;;;;;;18.68;39.89;102111.28;5130680;27;20056;-33
2022/01/16 11:25:39;;;;;;;0.20;0.20;;;;;;;18.68;39.91;102111.28;5144289;27;20047;-32
2022/01/16 11:28:11;;;;;;;0.20;0.20;;;;;;;18.69;40.03;102110.25;5126693;27;20178;-32
2022/01/16 11:30:40;;;;;;;0.30;0.30;;;;;;;18.70;39.81;102111.09;5125137;27;20047;-33
2022/01/16 11:33:06;;;;;;;0.20;0.20;;;;;;;18.67;40.05;102106.88;5142014;27;20397;-32
2022/01/16 11:35:34;;;;;;;0.30;0.30;;;;;;;18.68;40.01;102105.78;5131943;27;20061;-32
2022/01/16 11:38:00;;;;;;;0.20;0.20;;;;;;;18.69;40.20;102101.97;5145245;27;20042;-35
2022/01/16 11:40:30;;;;;;;0.20;0.20;;;;;;;18.70;40.01;102102.81;5129226;27;20552;-32
2022/01/16 11:43:23;;;;;;;0.30;0.30;;;;;;;18.70;39.91;102091.78;5140676;27;20082;-32
2022/01/16 11:45:53;;;;;;;0.30;0.30;;;;;;;18.68;39.92;102100.25;5130564;27;20382;-32
2022/01/16 11:48:53;;;;;;;0.30;0.30;;;;;;;18.68;39.88;102097.50;5128416;27;20312;-33
2022/01/16 11:54:32;;;;;;;0.20;0.20;;;;;;;18.70;39.87;102102.81;5159032;27;20195;-35
2022/01/16 11:57:03;;;;;;;0.20;0.20;;;;;;;18.69;39.95;102104.72;5134552;27;20043;-34
2022/01/16 12:04:54;;;;;;;0.20;0.20;;;;;;;18.70;40.02;102091.78;5175856;27;20209;-36
2022/01/16 12:07:25;;;;;;;0.22;0.22;;;;;;;18.70;39.82;102102.81;5141773;27;20046;-32
2022/01/16 12:09:53;;;;;;;0.20;0.20;;;;;;;18.69;39.91;102104.72;5147712;27;20087;-32
2022/01/16 12:15:09;;;;;;;0.20;0.20;;;;;;;18.71;40.08;102107.25;5166692;27;20221;-32
2022/01/16 12:23:10;;;;;;;0.20;0.20;;;;;;;18.70;40.07;102106.41;5161332;27;20202;-33
2022/01/16 12:25:56;;;;;;;0.20;0.20;;;;;;;18.70;40.13;102106.41;5146230;27;20043;-33
2022/01/16 12:28:25;;;;;;;0.30;0.30;;;;;;;18.70;40.03;102106.41;5146831;27;20095;-32
2022/01/16 12:30:59;;;;;;;0.20;0.20;;;;;;;18.71;39.94;102101.72;5152144;27;20505;-33
2022/01/16 12:33:47;;;;;;;0.22;0.22;;;;;;;18.71;39.85;102101.72;5132536;27;20095;-32